createdAt,value
2022-10-22T00:00:42.806Z,15.27
2022-10-22T00:03:10.214Z,9.75
2022-10-22T00:05:37.513Z,14.15
2022-10-22T00:08:06.178Z,14.65
2022-10-22T00:10:33.541Z,14.75
2022-10-22T00:13:00.882Z,15.15
2022-10-22T00:15:28.283Z,14.48
2022-10-22T00:17:55.778Z,13.02
2022-10-22T00:20:23.142Z,11.52
2022-10-22T00:25:24.155Z,16.77
2022-10-22T00:27:51.537Z,13.35
2022-10-22T00:30:18.938Z,11.90
2022-10-22T00:32:46.290Z,13.00
2022-10-22T00:35:13.805Z,17.27
2022-10-22T00:37:41.169Z,12.63
2022-10-22T00:40:09.438Z,15.98
2022-10-22T00:42:36.849Z,14.98
2022-10-22T00:45:10.200Z,14.07
2022-10-22T00:47:49.923Z,16.38
2022-10-22T00:50:35.401Z,15.18
2022-10-22T00:53:06.766Z,13.98
2022-10-22T00:55:34.620Z,13.88
2022-10-22T00:58:02.409Z,15.38
2022-10-22T01:00:30.101Z,12.90
2022-10-22T01:02:58.001Z,14.77
2022-10-22T01:05:29.410Z,16.20
2022-10-22T01:07:57.293Z,22.25
2022-10-22T01:10:43.149Z,17.27
2022-10-22T01:13:47.571Z,15.75
2022-10-22T01:16:45.003Z,17.23
2022-10-22T01:19:44.792Z,12.80
2022-10-22T01:22:21.242Z,11.95
2022-10-22T01:25:00.315Z,15.77
2022-10-22T01:27:53.643Z,16.55
2022-10-22T01:30:21.358Z,16.00
2022-10-22T01:32:52.423Z,12.65
2022-10-22T01:35:25.457Z,13.43
2022-10-22T01:37:58.015Z,15.23
2022-10-22T01:40:27.066Z,16.65
2022-10-22T01:42:59.507Z,16.05
2022-10-22T01:45:29.845Z,10.43
2022-10-22T01:48:00.232Z,15.85
2022-10-22T01:50:46.449Z,16.63
2022-10-22T01:53:41.842Z,20.10
2022-10-22T01:56:23.523Z,17.02
2022-10-22T01:59:09.342Z,15.48
2022-10-22T02:02:03.293Z,15.73
2022-10-22T02:04:38.536Z,17.98
2022-10-22T02:07:10.724Z,15.23
2022-10-22T02:09:39.448Z,18.38
2022-10-22T02:12:08.389Z,15.88
2022-10-22T02:14:39.839Z,16.05
2022-10-22T02:17:11.687Z,15.40
2022-10-22T02:22:11.881Z,21.15
2022-10-22T02:24:39.320Z,12.77
2022-10-22T02:27:27.897Z,15.70
2022-10-22T02:30:09.056Z,14.98
2022-10-22T02:33:12.211Z,15.90
2022-10-22T02:35:41.877Z,18.95
2022-10-22T02:38:10.693Z,16.95
2022-10-22T02:40:38.491Z,18.33
2022-10-22T02:43:06.922Z,18.10
2022-10-22T02:45:34.766Z,17.20
2022-10-22T02:48:02.916Z,18.70
2022-10-22T02:50:30.330Z,14.48
2022-10-22T02:52:57.658Z,15.73
2022-10-22T02:55:25.464Z,16.42
2022-10-22T02:57:52.900Z,17.58
2022-10-22T03:00:20.826Z,16.88
2022-10-22T03:02:48.175Z,17.13
2022-10-22T03:05:15.635Z,15.10
2022-10-22T03:07:43.153Z,19.60
2022-10-22T03:10:10.711Z,16.00
2022-10-22T03:12:38.071Z,15.98
2022-10-22T03:15:06.042Z,17.75
2022-10-22T03:17:33.375Z,13.13
2022-10-22T03:20:00.702Z,16.33
2022-10-22T03:22:30.118Z,17.85
2022-10-22T03:25:03.013Z,19.50
2022-10-22T03:27:30.857Z,16.90
2022-10-22T03:29:59.495Z,16.13
2022-10-22T03:32:26.837Z,14.98
2022-10-22T03:34:54.167Z,16.08
2022-10-22T03:37:22.686Z,16.45
2022-10-22T03:39:50.211Z,14.98
2022-10-22T03:42:17.671Z,14.55
2022-10-22T03:44:45.304Z,16.83
2022-10-22T03:47:12.720Z,13.95
2022-10-22T03:49:40.123Z,15.23
2022-10-22T03:52:12.186Z,19.15
2022-10-22T03:54:39.997Z,18.17
2022-10-22T03:57:07.980Z,12.65
2022-10-22T03:59:45.772Z,16.77
2022-10-22T04:02:14.027Z,28.73
2022-10-22T04:04:41.485Z,15.02
2022-10-22T04:07:09.185Z,18.88
2022-10-22T04:09:37.173Z,19.30
2022-10-22T04:12:06.589Z,18.40
2022-10-22T04:14:34.363Z,19.48
2022-10-22T04:17:01.718Z,19.77
2022-10-22T04:19:29.053Z,18.08
2022-10-22T04:21:59.491Z,16.65
2022-10-22T04:24:27.400Z,15.27
2022-10-22T04:26:55.280Z,16.98
2022-10-22T04:29:23.210Z,15.38
2022-10-22T04:31:50.544Z,14.07
2022-10-22T04:34:17.872Z,17.70
2022-10-22T04:36:45.166Z,18.85
2022-10-22T04:39:12.564Z,16.33
2022-10-22T04:41:40.095Z,17.20
2022-10-22T04:44:11.124Z,19.95
2022-10-22T04:46:43.427Z,18.08
2022-10-22T04:49:10.801Z,17.30
2022-10-22T04:51:38.186Z,19.08
2022-10-22T04:54:05.642Z,18.77
2022-10-22T04:56:33.398Z,20.13
2022-10-22T04:59:07.053Z,19.33
2022-10-22T05:01:41.617Z,14.35
2022-10-22T05:04:16.051Z,17.05
2022-10-22T05:06:43.896Z,18.02
2022-10-22T05:09:14.634Z,23.17
2022-10-22T05:11:46.209Z,16.27
2022-10-22T05:14:14.939Z,17.70
2022-10-22T05:16:42.372Z,18.67
2022-10-22T05:19:16.914Z,16.33
2022-10-22T05:21:44.557Z,14.15
2022-10-22T05:24:12.136Z,16.33
2022-10-22T05:26:39.605Z,18.27
2022-10-22T05:29:07.253Z,19.58
2022-10-22T05:31:35.295Z,18.42
2022-10-22T05:34:02.759Z,22.15
2022-10-22T05:36:30.263Z,22.63
2022-10-22T05:38:57.751Z,23.42
2022-10-22T05:41:26.621Z,24.15
2022-10-22T05:43:58.586Z,20.38
2022-10-22T05:46:32.852Z,23.15
2022-10-22T05:49:05.387Z,21.38
2022-10-22T05:51:34.385Z,17.92
2022-10-22T05:54:03.550Z,23.75
2022-10-22T05:56:34.405Z,18.10
2022-10-22T06:01:37.539Z,20.30
2022-10-22T06:04:07.382Z,18.88
2022-10-22T06:06:40.564Z,17.52
2022-10-22T06:09:27.845Z,15.00
2022-10-22T06:11:56.576Z,18.40
2022-10-22T06:14:24.747Z,19.75
2022-10-22T06:16:52.435Z,22.70
2022-10-22T06:19:22.408Z,20.40
2022-10-22T06:21:49.915Z,19.10
2022-10-22T06:24:17.294Z,14.73
2022-10-22T06:26:44.669Z,14.77
2022-10-22T06:29:12.063Z,17.80
2022-10-22T06:31:39.463Z,18.27
2022-10-22T06:34:08.695Z,15.73
2022-10-22T06:36:36.160Z,19.05
2022-10-22T06:39:04.410Z,18.15
2022-10-22T06:41:31.827Z,19.50
2022-10-22T06:44:00.075Z,15.55
2022-10-22T06:46:27.595Z,17.88
2022-10-22T06:48:59.193Z,24.00
2022-10-22T06:51:27.700Z,17.45
2022-10-22T06:53:58.608Z,18.83
2022-10-22T06:56:28.466Z,14.68
2022-10-22T06:58:57.731Z,17.70
2022-10-22T07:01:34.022Z,13.60
2022-10-22T07:04:02.369Z,18.42
2022-10-22T07:06:30.232Z,18.40
2022-10-22T07:08:59.648Z,22.55
2022-10-22T07:11:37.141Z,22.70
2022-10-22T07:14:04.504Z,17.63
2022-10-22T07:16:32.594Z,19.90
2022-10-22T07:19:01.448Z,15.88
2022-10-22T07:21:29.511Z,18.27
2022-10-22T07:23:57.355Z,14.63
2022-10-22T07:26:25.500Z,17.30
2022-10-22T07:28:52.845Z,15.55
2022-10-22T07:31:20.258Z,15.73
2022-10-22T07:33:47.658Z,15.88
2022-10-22T07:36:19.451Z,13.73
2022-10-22T07:41:20.362Z,14.35
2022-10-22T07:43:47.698Z,13.98
2022-10-22T07:46:15.237Z,16.20
2022-10-22T07:48:42.622Z,18.60
2022-10-22T07:51:10.109Z,17.40
2022-10-22T07:53:38.021Z,21.15
2022-10-22T07:56:05.718Z,18.15
2022-10-22T07:58:33.069Z,16.70
2022-10-22T08:01:02.379Z,16.30
2022-10-22T08:03:30.081Z,13.07
2022-10-22T08:05:58.083Z,17.40
2022-10-22T08:08:28.361Z,20.60
2022-10-22T08:11:00.598Z,15.63
2022-10-22T08:13:30.476Z,17.23
2022-10-22T08:15:59.749Z,19.40
2022-10-22T08:18:27.952Z,17.75
2022-10-22T08:20:55.661Z,16.05
2022-10-22T08:23:26.031Z,19.88
2022-10-22T08:25:57.260Z,22.17
2022-10-22T08:28:25.070Z,19.02
2022-10-22T08:30:52.335Z,16.55
2022-10-22T08:33:19.848Z,16.90
2022-10-22T08:35:51.670Z,17.42
2022-10-22T08:40:51.451Z,16.33
2022-10-22T08:43:37.671Z,17.35
2022-10-22T08:46:17.349Z,20.92
2022-10-22T08:49:20.581Z,16.33
2022-10-22T08:51:48.504Z,24.88
2022-10-22T08:54:40.832Z,21.30
2022-10-22T09:00:05.437Z,17.13
2022-10-22T09:03:00.595Z,24.38
2022-10-22T09:05:40.238Z,26.08
2022-10-22T09:08:16.052Z,20.10
2022-10-22T09:11:02.138Z,20.88
2022-10-22T09:13:29.849Z,15.60
2022-10-22T09:16:01.062Z,19.30
2022-10-22T09:18:39.346Z,21.35
2022-10-22T09:21:46.748Z,17.50
2022-10-22T09:24:38.814Z,17.33
2022-10-22T09:27:30.322Z,21.77
2022-10-22T09:29:58.181Z,20.27
2022-10-22T09:32:25.844Z,20.55
2022-10-22T09:34:56.680Z,27.27
2022-10-22T09:37:28.460Z,21.25
2022-10-22T09:42:25.371Z,16.13
2022-10-22T09:44:59.179Z,22.38
2022-10-22T09:48:01.040Z,18.10
2022-10-22T09:50:37.178Z,20.50
2022-10-22T09:53:25.808Z,17.85
2022-10-22T09:55:57.464Z,15.15
2022-10-22T09:58:25.280Z,17.13
2022-10-22T10:00:55.815Z,19.00
2022-10-22T10:03:28.736Z,28.25
2022-10-22T10:06:01.625Z,30.23
2022-10-22T10:08:32.499Z,24.42
2022-10-22T10:11:29.280Z,16.08
2022-10-22T10:14:05.904Z,19.15
2022-10-22T10:16:59.435Z,21.08
2022-10-22T10:19:40.102Z,18.15
2022-10-22T10:22:35.095Z,17.95
2022-10-22T10:25:24.090Z,18.60
2022-10-22T10:28:01.757Z,19.27
2022-10-22T10:30:30.886Z,22.20
2022-10-22T10:33:12.300Z,21.02
2022-10-22T10:35:58.675Z,20.85
2022-10-22T10:38:37.862Z,18.73
2022-10-22T10:41:23.412Z,22.58
2022-10-22T10:44:14.814Z,25.63
2022-10-22T10:47:00.891Z,21.10
2022-10-22T10:49:33.299Z,22.63
2022-10-22T10:52:18.879Z,20.92
2022-10-22T10:55:09.622Z,23.98
2022-10-22T10:58:09.604Z,23.10
2022-10-22T11:00:46.820Z,22.42
2022-10-22T11:03:35.026Z,20.75
2022-10-22T11:06:08.867Z,23.95
2022-10-22T11:08:38.250Z,16.58
2022-10-22T11:11:58.259Z,19.58
2022-10-22T11:14:38.169Z,21.10
2022-10-22T11:17:13.854Z,17.10
2022-10-22T11:19:59.083Z,26.80
2022-10-22T11:22:44.492Z,19.23
2022-10-22T11:25:23.013Z,17.40
2022-10-22T11:30:50.209Z,19.58
2022-10-22T11:33:21.403Z,17.48
2022-10-22T11:35:50.097Z,15.82
2022-10-22T11:38:26.138Z,20.50
2022-10-22T11:41:01.968Z,20.30
2022-10-22T11:43:35.826Z,19.55
2022-10-22T11:46:23.050Z,19.45
2022-10-22T11:49:18.741Z,16.02
2022-10-22T11:51:47.542Z,18.73
2022-10-22T11:54:37.292Z,23.70
2022-10-22T11:57:16.788Z,20.17
2022-10-22T11:59:46.903Z,15.60
2022-10-22T12:02:30.344Z,18.33
2022-10-22T12:05:32.618Z,18.35
2022-10-22T12:10:36.882Z,19.73
2022-10-22T12:13:24.853Z,21.52
2022-10-22T12:15:57.286Z,18.42
2022-10-22T12:18:28.137Z,43.58
2022-10-22T12:20:55.647Z,17.95
2022-10-22T12:23:29.950Z,58.10
2022-10-22T12:25:58.259Z,25.70
2022-10-22T12:28:25.822Z,21.40
2022-10-22T12:30:53.269Z,10.52
2022-10-22T12:33:23.046Z,13.10
2022-10-22T12:35:54.064Z,14.65
2022-10-22T12:38:25.765Z,8.30
2022-10-22T12:40:56.577Z,13.95
2022-10-22T12:43:29.395Z,10.63
2022-10-22T12:45:59.075Z,13.07
2022-10-22T12:48:34.449Z,12.05
2022-10-22T12:51:04.741Z,4.97
2022-10-22T12:53:37.955Z,12.90
2022-10-22T12:56:10.878Z,11.95
2022-10-22T12:58:45.430Z,7.03
2022-10-22T13:01:15.351Z,8.27
2022-10-22T13:03:46.756Z,9.18
2022-10-22T13:06:19.899Z,9.35
2022-10-22T13:08:57.579Z,3.35
2022-10-22T13:11:37.535Z,5.57
2022-10-22T13:14:14.733Z,7.78
2022-10-22T13:16:42.077Z,8.00
2022-10-22T13:19:46.236Z,6.45
2022-10-22T13:22:33.890Z,9.27
2022-10-22T13:25:20.153Z,4.15
2022-10-22T13:27:48.627Z,8.07
2022-10-22T13:30:36.385Z,5.82
2022-10-22T13:33:06.772Z,5.90
2022-10-22T13:35:38.375Z,7.90
2022-10-22T13:38:19.513Z,5.57
2022-10-22T13:40:48.127Z,6.20
2022-10-22T13:43:16.642Z,4.93
2022-10-22T13:45:44.630Z,16.00
2022-10-22T13:48:22.005Z,6.43
2022-10-22T13:50:50.664Z,4.60
2022-10-22T13:53:28.821Z,6.57
2022-10-22T13:55:56.462Z,10.02
2022-10-22T13:58:24.955Z,7.40
2022-10-22T14:00:58.158Z,8.52
2022-10-22T14:03:31.971Z,6.38
2022-10-22T14:05:59.982Z,8.02
2022-10-22T14:08:28.497Z,8.93
2022-10-22T14:10:56.297Z,8.95
2022-10-22T14:13:23.899Z,7.50
2022-10-22T14:15:52.257Z,7.25
2022-10-22T14:18:27.341Z,8.82
2022-10-22T14:20:57.709Z,8.55
2022-10-22T14:23:28.381Z,7.43
2022-10-22T14:25:56.842Z,8.32
2022-10-22T14:28:24.360Z,5.78
2022-10-22T14:30:52.710Z,5.28
2022-10-22T14:33:28.898Z,6.15
2022-10-22T14:36:00.832Z,10.07
2022-10-22T14:38:28.961Z,7.07
2022-10-22T14:40:57.658Z,5.75
2022-10-22T14:43:27.834Z,6.68
2022-10-22T14:45:55.798Z,7.82
2022-10-22T14:48:23.983Z,8.30
2022-10-22T14:50:51.562Z,8.38
2022-10-22T14:53:18.923Z,8.52
2022-10-22T14:55:47.518Z,8.85
2022-10-22T14:58:14.960Z,10.45
2022-10-22T15:00:43.506Z,13.80
2022-10-22T15:03:11.830Z,10.25
2022-10-22T15:05:46.441Z,8.30
2022-10-22T15:08:15.052Z,10.52
2022-10-22T15:10:42.573Z,10.57
2022-10-22T15:13:10.108Z,8.38
2022-10-22T15:15:40.343Z,11.30
2022-10-22T15:18:07.866Z,11.10
2022-10-22T15:20:35.203Z,11.32
2022-10-22T15:23:02.655Z,13.55
2022-10-22T15:25:30.520Z,10.13
2022-10-22T15:28:01.794Z,11.65
2022-10-22T15:30:32.118Z,10.52
2022-10-22T15:32:59.402Z,13.23
2022-10-22T15:35:28.694Z,10.13
2022-10-22T15:37:56.081Z,7.43
2022-10-22T15:40:23.483Z,11.25
2022-10-22T15:42:50.742Z,7.78
2022-10-22T15:45:18.112Z,9.90
2022-10-22T15:47:47.521Z,9.50
2022-10-22T15:50:15.621Z,6.80
2022-10-22T15:52:42.994Z,8.10
2022-10-22T15:57:45.664Z,7.47
2022-10-22T16:00:13.545Z,8.90
2022-10-22T16:02:40.833Z,7.57
2022-10-22T16:05:08.552Z,10.55
2022-10-22T16:07:35.917Z,8.55
2022-10-22T16:10:03.760Z,7.22
2022-10-22T16:12:31.117Z,11.48
2022-10-22T16:14:58.457Z,14.50
2022-10-22T16:17:25.829Z,10.93
2022-10-22T16:19:53.512Z,19.60
2022-10-22T16:22:20.783Z,15.00
2022-10-22T16:24:48.099Z,11.77
2022-10-22T16:27:15.488Z,12.00
2022-10-22T16:29:42.824Z,9.68
2022-10-22T16:32:10.232Z,12.07
2022-10-22T16:34:37.604Z,12.65
2022-10-22T16:37:10.136Z,18.58
2022-10-22T16:39:38.128Z,16.30
2022-10-22T16:42:05.799Z,6.85
2022-10-22T16:44:33.136Z,9.35
2022-10-22T16:47:01.045Z,11.13
2022-10-22T16:49:28.369Z,7.93
2022-10-22T16:51:55.634Z,13.52
2022-10-22T16:54:23.052Z,10.52
2022-10-22T16:56:50.353Z,8.60
2022-10-22T16:59:17.749Z,9.38
2022-10-22T17:01:45.140Z,16.50
2022-10-22T17:04:12.475Z,12.15
2022-10-22T17:06:39.954Z,9.57
2022-10-22T17:09:07.361Z,8.18
2022-10-22T17:11:37.008Z,11.20
2022-10-22T17:14:06.296Z,7.85
2022-10-22T17:16:33.710Z,8.20
2022-10-22T17:19:03.757Z,9.57
2022-10-22T17:21:31.100Z,11.80
2022-10-22T17:23:58.661Z,14.38
2022-10-22T17:26:26.901Z,11.57
2022-10-22T17:28:55.032Z,16.23
2022-10-22T17:31:35.516Z,14.10
2022-10-22T17:34:04.295Z,15.20
2022-10-22T17:36:35.018Z,11.90
2022-10-22T17:41:35.028Z,13.65
2022-10-22T17:44:04.749Z,9.80
2022-10-22T17:46:33.041Z,15.15
2022-10-22T17:49:03.697Z,14.70
2022-10-22T17:51:31.919Z,14.82
2022-10-22T17:53:59.301Z,15.02
2022-10-22T17:56:32.702Z,14.90
2022-10-22T17:59:00.181Z,14.75
2022-10-22T18:01:33.056Z,16.75
2022-10-22T18:04:07.921Z,13.95
2022-10-22T18:06:36.089Z,16.65
2022-10-22T18:09:05.822Z,17.40
2022-10-22T18:11:34.401Z,17.70
2022-10-22T18:14:01.762Z,14.48
2022-10-22T18:16:29.377Z,14.32
2022-10-22T18:18:57.770Z,17.15
2022-10-22T18:21:28.701Z,20.15
2022-10-22T18:23:57.784Z,13.65
2022-10-22T18:26:26.929Z,12.80
2022-10-22T18:28:56.316Z,20.63
2022-10-22T18:31:26.843Z,30.50
2022-10-22T18:33:55.561Z,31.67
2022-10-22T18:36:25.113Z,36.53
2022-10-22T18:38:54.926Z,26.48
2022-10-22T18:41:22.691Z,39.10
2022-10-22T18:43:55.667Z,37.60
2022-10-22T18:46:24.100Z,31.50
2022-10-22T18:48:55.807Z,27.30
2022-10-22T18:51:24.329Z,17.15
2022-10-22T18:54:05.408Z,17.85
2022-10-22T18:56:42.062Z,17.35
2022-10-22T18:59:18.981Z,12.82
2022-10-22T19:01:46.407Z,15.75
2022-10-22T19:04:14.237Z,11.07
2022-10-22T19:06:45.387Z,12.05
2022-10-22T19:09:16.724Z,17.55
2022-10-22T19:11:45.170Z,14.20
2022-10-22T19:14:14.871Z,11.93
2022-10-22T19:16:42.251Z,9.13
2022-10-22T19:19:09.778Z,13.73
2022-10-22T19:21:38.350Z,8.48
2022-10-22T19:24:06.519Z,16.95
2022-10-22T19:26:34.173Z,15.68
2022-10-22T19:29:01.789Z,12.93
2022-10-22T19:31:30.128Z,14.63
2022-10-22T19:33:58.876Z,16.40
2022-10-22T19:36:30.312Z,16.35
2022-10-22T19:38:58.646Z,20.70
2022-10-22T19:41:27.404Z,21.05
2022-10-22T19:43:56.405Z,20.83
2022-10-22T19:46:25.717Z,16.30
2022-10-22T19:48:54.230Z,20.33
2022-10-22T19:51:24.390Z,16.35
2022-10-22T19:53:56.464Z,15.20
2022-10-22T19:56:23.820Z,18.17
2022-10-22T19:58:51.198Z,14.07
2022-10-22T20:01:19.330Z,15.93
2022-10-22T20:03:46.983Z,15.32
2022-10-22T20:06:16.039Z,16.73
2022-10-22T20:08:43.651Z,13.23
2022-10-22T20:11:17.574Z,13.52
2022-10-22T20:13:48.009Z,16.23
2022-10-22T20:16:23.223Z,17.08
2022-10-22T20:18:52.108Z,15.30
2022-10-22T20:21:20.439Z,15.85
2022-10-22T20:23:51.407Z,19.25
2022-10-22T20:26:19.241Z,20.47
2022-10-22T20:28:46.513Z,11.15
2022-10-22T20:31:17.459Z,20.58
2022-10-22T20:33:44.790Z,15.38
2022-10-22T20:36:21.229Z,13.68
2022-10-22T20:38:49.471Z,16.77
2022-10-22T20:41:22.200Z,14.98
2022-10-22T20:43:51.021Z,13.90
2022-10-22T20:46:24.805Z,19.30
2022-10-22T20:48:54.121Z,11.70
2022-10-22T20:51:21.853Z,15.25
2022-10-22T20:53:49.733Z,13.95
2022-10-22T20:56:19.054Z,17.30
2022-10-22T20:58:50.024Z,20.27
2022-10-22T21:01:24.272Z,23.60
2022-10-22T21:03:52.871Z,21.33
2022-10-22T21:06:23.086Z,22.08
2022-10-22T21:08:51.195Z,17.10
2022-10-22T21:11:19.598Z,17.02
2022-10-22T21:13:47.156Z,13.45
2022-10-22T21:16:16.990Z,14.93
2022-10-22T21:18:44.814Z,18.25
2022-10-22T21:21:12.870Z,14.75
2022-10-22T21:23:40.241Z,16.92
2022-10-22T21:26:07.656Z,13.10
2022-10-22T21:28:36.545Z,18.83
2022-10-22T21:31:11.171Z,14.43
2022-10-22T21:33:40.073Z,19.58
2022-10-22T21:36:09.150Z,19.58
2022-10-22T21:38:37.831Z,13.82
2022-10-22T21:41:10.429Z,12.57
2022-10-22T21:43:39.113Z,10.45
2022-10-22T21:46:10.677Z,11.73
2022-10-22T21:48:38.774Z,13.63
2022-10-22T21:51:17.803Z,14.43
2022-10-22T21:53:45.633Z,14.48
2022-10-22T21:56:19.394Z,11.65
2022-10-22T21:58:47.108Z,14.23
2022-10-22T22:01:15.275Z,13.23
2022-10-22T22:03:52.734Z,13.77
2022-10-22T22:06:23.098Z,13.07
2022-10-22T22:08:52.386Z,13.18
2022-10-22T22:11:22.730Z,17.40
2022-10-22T22:13:51.363Z,11.15
2022-10-22T22:16:28.119Z,15.63
2022-10-22T22:19:02.170Z,13.10
2022-10-22T22:21:30.237Z,10.43
2022-10-22T22:23:58.138Z,9.10
2022-10-22T22:26:29.652Z,15.40
2022-10-22T22:28:59.648Z,11.25
2022-10-22T22:31:33.271Z,13.95
2022-10-22T22:34:03.257Z,13.95
2022-10-22T22:36:36.311Z,10.98
2022-10-22T22:39:05.668Z,13.15
2022-10-22T22:41:33.155Z,11.05
2022-10-22T22:44:00.671Z,10.23
2022-10-22T22:46:28.318Z,12.13
2022-10-22T22:48:56.099Z,13.30
2022-10-22T22:51:23.548Z,13.70
2022-10-22T22:53:51.758Z,11.45
2022-10-22T22:56:25.958Z,13.15
2022-10-22T22:58:53.578Z,8.60
2022-10-22T23:01:31.095Z,11.43
2022-10-22T23:04:03.941Z,11.45
2022-10-22T23:06:34.788Z,11.90
2022-10-22T23:09:02.787Z,11.82
2022-10-22T23:11:30.297Z,10.95
2022-10-22T23:14:00.307Z,12.57
2022-10-22T23:16:30.535Z,12.88
2022-10-22T23:18:58.321Z,12.15
2022-10-22T23:21:28.675Z,9.15
2022-10-22T23:23:59.078Z,9.35
2022-10-22T23:26:29.543Z,12.93
2022-10-22T23:29:03.982Z,9.57
2022-10-22T23:31:31.348Z,10.85
2022-10-22T23:33:58.927Z,9.73
2022-10-22T23:36:26.437Z,8.10
2022-10-22T23:38:54.431Z,12.23
2022-10-22T23:41:21.782Z,8.75
2022-10-22T23:43:50.650Z,9.85
2022-10-22T23:46:18.141Z,11.95
2022-10-22T23:48:45.812Z,8.65
2022-10-22T23:51:15.650Z,7.63
2022-10-22T23:53:44.503Z,6.50
2022-10-22T23:56:17.102Z,9.70
2022-10-22T23:58:44.925Z,5.82
